Time;durP1;ratioP1;P1;durP2;ratioP2;P2;SDS_P1;SDS_P2;PMS_P1;PMS_P2;Temp;Humidity;BMP_temperature;BMP_pressure;BME280_temperature;BME280_humidity;BME280_pressure;Samples;Min_cycle;Max_cycle;Signal;HPM_P1;HPM_P2
2022/11/21 00:01:13;;;;;;;20.20;14.27;;;5.70;99.90;;;;;;4974018;28;20436;-73
2022/11/21 00:03:39;;;;;;;22.17;14.47;;;5.70;99.90;;;;;;4974162;28;20484;-73
2022/11/21 00:06:04;;;;;;;19.33;14.60;;;5.70;99.90;;;;;;4974262;28;20441;-73
2022/11/21 00:08:30;;;;;;;21.60;14.53;;;5.60;99.90;;;;;;4974131;28;20197;-73
2022/11/21 00:10:58;;;;;;;20.60;14.90;;;5.60;99.90;;;;;;4974172;28;20178;-73
2022/11/21 00:13:24;;;;;;;19.00;14.27;;;5.60;99.90;;;;;;4974201;28;20541;-77
2022/11/21 00:15:49;;;;;;;20.50;13.80;;;5.50;99.90;;;;;;4974131;28;20435;-77
2022/11/21 00:18:15;;;;;;;18.57;14.33;;;5.50;99.90;;;;;;4956804;28;20185;-78
2022/11/21 00:20:41;;;;;;;20.27;15.40;;;5.50;99.90;;;;;;4957003;28;20264;-77
2022/11/21 00:23:07;;;;;;;18.70;13.63;;;5.50;99.90;;;;;;4973964;28;20193;-77
2022/11/21 00:25:33;;;;;;;18.37;14.00;;;5.50;99.90;;;;;;4974208;28;20432;-77
2022/11/21 00:27:59;;;;;;;21.67;14.13;;;5.50;99.90;;;;;;4974066;28;20912;-76
2022/11/21 00:30:25;;;;;;;18.07;13.70;;;5.50;99.90;;;;;;4973766;28;20182;-76
2022/11/21 00:32:50;;;;;;;17.37;12.67;;;5.50;99.90;;;;;;4956718;28;20268;-75
2022/11/21 00:35:16;;;;;;;19.10;14.63;;;5.50;99.90;;;;;;4956578;28;20948;-74
2022/11/21 00:37:41;;;;;;;18.60;13.70;;;5.50;99.90;;;;;;4974013;28;20280;-74
2022/11/21 00:40:08;;;;;;;19.90;12.90;;;5.50;99.90;;;;;;4973941;28;20556;-74
2022/11/21 00:42:33;;;;;;;15.57;11.97;;;5.50;99.90;;;;;;4973807;28;20178;-75
2022/11/21 00:44:59;;;;;;;15.70;11.93;;;5.50;99.90;;;;;;4973949;28;20433;-74
2022/11/21 00:47:24;;;;;;;15.67;12.07;;;5.50;99.90;;;;;;4974049;28;20185;-74
2022/11/21 00:49:50;;;;;;;17.17;11.07;;;5.40;99.90;;;;;;4973868;28;20221;-74
2022/11/21 00:52:16;;;;;;;19.37;13.20;;;5.40;99.90;;;;;;4973870;28;20212;-74
2022/11/21 00:54:42;;;;;;;19.53;12.80;;;5.40;99.90;;;;;;4975539;28;20189;-74
2022/11/21 00:57:07;;;;;;;17.87;12.50;;;5.40;99.90;;;;;;4960240;28;20457;-74
2022/11/21 00:59:33;;;;;;;20.57;13.07;;;5.40;99.90;;;;;;4977450;28;20178;-79
2022/11/21 01:01:59;;;;;;;17.47;12.80;;;5.30;99.90;;;;;;4977559;28;20235;-78
2022/11/21 01:04:24;;;;;;;22.73;13.97;;;5.30;99.90;;;;;;4977357;28;20182;-78
2022/11/21 01:06:50;;;;;;;19.30;12.50;;;5.30;99.90;;;;;;4977356;28;20181;-78
2022/11/21 01:09:15;;;;;;;17.10;11.80;;;5.30;99.90;;;;;;4977282;28;20209;-76
2022/11/21 01:11:41;;;;;;;15.10;10.87;;;5.30;99.90;;;;;;4977184;28;20201;-77
2022/11/21 01:14:06;;;;;;;16.83;12.33;;;5.30;99.90;;;;;;4977262;28;20209;-77
2022/11/21 01:16:32;;;;;;;15.87;12.00;;;5.30;99.90;;;;;;4977208;28;20185;-78
2022/11/21 01:18:58;;;;;;;16.97;12.40;;;5.30;99.90;;;;;;4977134;28;20184;-77
2022/11/21 01:21:29;;;;;;;17.07;11.00;;;5.30;99.90;;;;;;4977046;28;20178;-77
2022/11/21 01:23:57;;;;;;;16.33;11.57;;;5.30;99.90;;;;;;4977129;28;20181;-77
2022/11/21 01:26:25;;;;;;;14.90;11.37;;;5.20;99.90;;;;;;4976872;28;20448;-75
2022/11/21 01:28:51;;;;;;;17.03;12.93;;;5.20;99.90;;;;;;4976933;28;20515;-76
2022/11/21 01:31:28;;;;;;;21.27;14.53;;;5.20;99.90;;;;;;4976569;28;20964;-75
2022/11/21 05:32:28;;;;;;;32.63;17.50;;;4.90;99.90;;;;;;5012493;23;21036;-83
2022/11/21 05:34:53;;;;;;;34.93;20.20;;;4.90;99.90;;;;;;4918482;29;20431;-76
2022/11/21 05:37:20;;;;;;;35.27;20.57;;;4.90;99.90;;;;;;4918457;29;20183;-77
2022/11/21 05:39:46;;;;;;;34.63;19.27;;;4.90;99.90;;;;;;4901034;29;20187;-77
2022/11/21 05:42:11;;;;;;;36.70;21.50;;;4.90;99.90;;;;;;4918230;29;20804;-81
2022/11/21 05:44:37;;;;;;;31.07;16.97;;;5.00;99.90;;;;;;4918490;29;20519;-78
2022/11/21 05:47:02;;;;;;;33.90;19.23;;;5.10;99.90;;;;;;4918358;29;20175;-78
2022/11/21 05:49:28;;;;;;;31.27;17.93;;;5.00;99.90;;;;;;4918005;29;20226;-79
2022/11/21 05:51:53;;;;;;;36.13;20.60;;;5.00;99.90;;;;;;4918382;29;20176;-77
2022/11/21 05:54:19;;;;;;;31.93;18.90;;;5.00;99.90;;;;;;4918224;29;20633;-74
2022/11/21 05:56:44;;;;;;;40.30;21.03;;;4.90;99.90;;;;;;4917341;29;20230;-73
2022/11/21 05:59:10;;;;;;;31.37;18.20;;;4.90;99.90;;;;;;4917352;29;20654;-74
2022/11/21 06:04:20;;;;;;;36.60;20.10;;;4.90;99.90;;;;;;4916306;29;20306;-73
2022/11/21 06:06:46;;;;;;;34.87;19.17;;;4.90;99.90;;;;;;4917323;29;20893;-71
2022/11/21 06:09:11;;;;;;;34.30;20.17;;;5.10;99.90;;;;;;4917260;29;20687;-71
2022/11/21 06:11:37;;;;;;;33.13;19.53;;;5.10;99.90;;;;;;4917425;29;20180;-71
2022/11/21 06:14:02;;;;;;;31.90;18.40;;;5.10;99.90;;;;;;4917445;29;20215;-71
2022/11/21 06:16:28;;;;;;;40.57;20.97;;;5.10;99.90;;;;;;4917634;29;20191;-72
2022/11/21 06:18:54;;;;;;;31.20;17.13;;;5.10;99.90;;;;;;4917915;29;20183;-73
2022/11/21 06:21:23;;;;;;;36.23;19.80;;;5.10;99.90;;;;;;4917699;29;20676;-75
2022/11/21 06:23:53;;;;;;;32.03;19.57;;;5.10;99.90;;;;;;4917031;29;20451;-74
2022/11/21 06:26:21;;;;;;;32.77;19.40;;;5.10;99.90;;;;;;4917471;29;20458;-72
2022/11/21 06:28:47;;;;;;;32.27;18.50;;;5.10;99.90;;;;;;4917869;29;20885;-72
2022/11/21 06:31:15;;;;;;;36.00;18.80;;;5.10;99.90;;;;;;4917912;29;20486;-72
2022/11/21 06:33:42;;;;;;;36.83;19.40;;;5.10;99.90;;;;;;4918092;29;20191;-72
2022/11/21 06:36:10;;;;;;;30.53;19.27;;;5.10;99.90;;;;;;4918525;29;20523;-72
2022/11/21 06:38:36;;;;;;;33.80;17.03;;;5.10;99.90;;;;;;4918284;29;20442;-75
2022/11/21 06:41:18;;;;;;;41.57;19.73;;;5.20;99.90;;;;;;4910395;29;20454;-74
2022/11/21 06:43:44;;;;;;;32.37;19.30;;;5.30;99.90;;;;;;4918295;29;20515;-74
2022/11/21 06:46:11;;;;;;;32.23;18.00;;;5.30;99.90;;;;;;4918199;29;20877;-73
2022/11/21 06:48:37;;;;;;;34.57;18.67;;;5.30;99.90;;;;;;4917666;29;20583;-73
2022/11/21 06:51:04;;;;;;;33.00;18.93;;;5.20;99.90;;;;;;4915250;29;20815;-73
2022/11/21 06:53:30;;;;;;;39.83;18.57;;;5.10;99.90;;;;;;4916843;29;20431;-73
2022/11/21 06:55:58;;;;;;;38.20;19.60;;;5.10;99.90;;;;;;4916608;29;20442;-73
2022/11/21 06:58:24;;;;;;;31.83;18.80;;;5.10;99.90;;;;;;4916637;29;20196;-73
2022/11/21 07:00:50;;;;;;;38.07;17.17;;;5.00;99.90;;;;;;4917872;29;20434;-73
2022/11/21 07:03:15;;;;;;;31.80;17.90;;;5.00;99.90;;;;;;4917765;29;20269;-73
2022/11/21 07:05:41;;;;;;;38.03;18.90;;;5.00;99.90;;;;;;4917864;29;20182;-73
2022/11/21 07:08:06;;;;;;;32.00;16.97;;;5.10;99.90;;;;;;4917651;29;20182;-73
2022/11/21 07:10:32;;;;;;;27.90;16.37;;;5.10;99.90;;;;;;4917744;29;20180;-73
2022/11/21 07:15:43;;;;;;;34.97;16.43;;;5.10;99.90;;;;;;4918147;29;20187;-73
2022/11/21 07:18:09;;;;;;;31.60;19.80;;;5.10;99.90;;;;;;4917515;29;20511;-73
2022/11/21 07:20:34;;;;;;;30.63;17.50;;;5.20;99.90;;;;;;4917613;29;20531;-73
2022/11/21 07:23:00;;;;;;;33.83;19.67;;;5.20;99.90;;;;;;4917487;29;20181;-73
2022/11/21 07:25:25;;;;;;;29.50;17.33;;;5.30;99.90;;;;;;4917504;29;20583;-74
2022/11/21 07:27:51;;;;;;;30.40;16.13;;;5.30;99.90;;;;;;4917694;29;20245;-73
2022/11/21 07:30:17;;;;;;;34.90;18.33;;;5.30;99.90;;;;;;4917144;29;20229;-74
2022/11/21 07:32:42;;;;;;;33.07;18.43;;;5.30;99.90;;;;;;4917171;29;20203;-73
2022/11/21 07:35:08;;;;;;;31.17;18.07;;;5.30;99.90;;;;;;4917255;29;20353;-72
2022/11/21 07:37:38;;;;;;;32.10;17.57;;;5.30;99.90;;;;;;4917348;29;20198;-72
2022/11/21 07:40:05;;;;;;;35.47;17.57;;;5.30;99.90;;;;;;4917216;29;20467;-72
2022/11/21 07:42:33;;;;;;;27.80;16.00;;;5.30;99.90;;;;;;4916748;29;20938;-72
2022/11/21 07:44:59;;;;;;;32.50;18.37;;;5.40;99.90;;;;;;4917147;29;20934;-72
2022/11/21 07:47:25;;;;;;;37.20;18.37;;;5.40;99.90;;;;;;4917060;29;20494;-72
2022/11/21 07:49:50;;;;;;;34.27;17.43;;;5.50;99.90;;;;;;4917011;29;20584;-72
2022/11/21 07:52:16;;;;;;;32.93;18.97;;;5.50;99.90;;;;;;4917036;29;20182;-72
2022/11/21 07:54:41;;;;;;;30.43;18.27;;;5.50;99.90;;;;;;4916928;29;20628;-72
2022/11/21 07:57:07;;;;;;;35.83;18.40;;;5.50;99.90;;;;;;4917274;29;20255;-72
2022/11/21 07:59:32;;;;;;;30.90;19.40;;;5.60;99.90;;;;;;4917019;29;20270;-72
2022/11/21 08:01:58;;;;;;;34.00;17.80;;;5.60;99.90;;;;;;4916891;29;20220;-72
2022/11/21 08:04:23;;;;;;;31.70;16.77;;;5.60;99.90;;;;;;4916734;29;20236;-72
2022/11/21 08:06:49;;;;;;;30.30;17.17;;;5.70;99.90;;;;;;4916943;29;20657;-72
2022/11/21 08:09:14;;;;;;;32.23;17.80;;;5.70;99.90;;;;;;4916668;29;20219;-72
2022/11/21 08:11:40;;;;;;;34.87;17.40;;;5.70;99.90;;;;;;4916783;29;20524;-72
2022/11/21 08:14:05;;;;;;;29.57;17.30;;;5.80;99.90;;;;;;4916784;29;20203;-72
2022/11/21 08:16:31;;;;;;;31.70;17.30;;;5.80;99.90;;;;;;4899852;29;20179;-72
2022/11/21 08:18:58;;;;;;;34.07;17.97;;;5.80;99.90;;;;;;4916757;29;20185;-72
2022/11/21 08:21:24;;;;;;;35.33;17.53;;;5.80;99.90;;;;;;4916802;29;20459;-72
2022/11/21 08:23:50;;;;;;;33.17;16.43;;;5.90;99.90;;;;;;4916610;29;20431;-72
2022/11/21 08:26:15;;;;;;;33.23;17.57;;;5.90;99.90;;;;;;4916704;29;20201;-72
2022/11/21 08:28:41;;;;;;;33.93;18.07;;;5.90;99.90;;;;;;4916732;29;20241;-72
2022/11/21 08:31:06;;;;;;;30.90;17.40;;;5.90;99.90;;;;;;4916498;29;20238;-72
2022/11/21 08:33:32;;;;;;;30.47;17.57;;;6.00;99.90;;;;;;4916772;29;20197;-72
2022/11/21 08:35:58;;;;;;;39.60;18.90;;;5.90;99.90;;;;;;4916549;29;20195;-72
2022/11/21 08:38:23;;;;;;;34.63;19.30;;;6.00;99.90;;;;;;4916743;29;20219;-72
2022/11/21 08:42:01;;;;;;;34.93;18.97;;;6.10;99.90;;;;;;4916610;29;20315;-72
2022/11/21 08:43:37;;;;;;;35.43;17.87;;;6.10;99.90;;;;;;4916453;29;20207;-73
2022/11/21 08:46:02;;;;;;;32.10;17.30;;;6.20;99.90;;;;;;4916516;29;20420;-72
2022/11/21 08:48:28;;;;;;;39.87;19.03;;;6.30;99.90;;;;;;4916489;29;20204;-72
2022/11/21 08:50:56;;;;;;;32.20;17.57;;;6.20;99.90;;;;;;4916747;29;20183;-73
2022/11/21 08:53:21;;;;;;;37.00;18.50;;;6.30;99.90;;;;;;4916437;29;20187;-72
2022/11/21 08:55:47;;;;;;;31.20;17.73;;;6.20;99.90;;;;;;4916587;29;20423;-72
2022/11/21 08:58:12;;;;;;;40.63;16.90;;;6.20;99.90;;;;;;4916440;29;20581;-72
2022/11/21 09:00:38;;;;;;;34.20;17.37;;;6.20;99.90;;;;;;4899677;29;20172;-72
2022/11/21 09:03:04;;;;;;;33.07;17.80;;;6.20;99.90;;;;;;4916447;29;20428;-72
2022/11/21 09:05:31;;;;;;;39.50;21.90;;;6.20;99.90;;;;;;4915650;29;20498;-72
2022/11/21 09:07:57;;;;;;;41.70;18.70;;;6.20;99.90;;;;;;4916388;29;20487;-76
2022/11/21 09:10:24;;;;;;;36.40;19.27;;;6.30;99.90;;;;;;4916177;29;20485;-72
2022/11/21 09:12:49;;;;;;;35.23;18.90;;;6.30;99.90;;;;;;4915669;29;20423;-72
2022/11/21 09:18:03;;;;;;;38.47;19.67;;;6.40;99.90;;;;;;4919684;29;20246;-72
2022/11/21 09:20:30;;;;;;;34.80;18.53;;;6.40;99.90;;;;;;4919489;29;20442;-72
2022/11/21 09:22:56;;;;;;;34.93;17.60;;;6.60;99.90;;;;;;4902627;29;20440;-72
2022/11/21 09:25:21;;;;;;;42.60;19.87;;;6.60;99.90;;;;;;4918005;29;20436;-73
2022/11/21 09:27:47;;;;;;;48.20;20.43;;;6.50;99.90;;;;;;4919290;29;20179;-73
2022/11/21 09:30:12;;;;;;;33.30;17.70;;;6.50;99.90;;;;;;4919135;29;20557;-72
2022/11/21 09:32:39;;;;;;;41.50;19.60;;;6.50;99.90;;;;;;4917652;29;20236;-72
2022/11/21 09:35:05;;;;;;;41.80;20.17;;;6.60;99.90;;;;;;4919119;29;20267;-71
2022/11/21 09:37:36;;;;;;;36.63;18.73;;;6.60;99.90;;;;;;4919113;29;20459;-71
2022/11/21 09:40:02;;;;;;;41.83;20.07;;;6.60;99.90;;;;;;4919039;29;20807;-71
2022/11/21 09:43:03;;;;;;;39.47;19.70;;;6.60;99.90;;;;;;4919005;29;20918;-72
2022/11/21 09:45:36;;;;;;;37.57;18.20;;;6.60;99.90;;;;;;4918969;29;21006;-75
2022/11/21 09:48:07;;;;;;;34.30;19.00;;;6.60;99.90;;;;;;4919175;29;20443;-68
2022/11/21 09:50:40;;;;;;;44.10;21.43;;;6.60;99.90;;;;;;4919340;29;20891;-70
2022/11/21 09:53:12;;;;;;;45.27;19.30;;;6.60;99.90;;;;;;4918899;29;20939;-70
2022/11/21 09:55:45;;;;;;;38.63;18.07;;;6.70;99.90;;;;;;4918524;29;20436;-69
2022/11/21 09:58:22;;;;;;;37.23;18.80;;;6.80;99.90;;;;;;4918933;29;20962;-70
2022/11/21 10:00:51;;;;;;;43.10;20.53;;;6.80;99.90;;;;;;4918832;29;20434;-70
2022/11/21 10:03:18;;;;;;;40.60;20.00;;;6.80;99.90;;;;;;4918968;29;20440;-70
2022/11/21 10:05:53;;;;;;;39.80;20.10;;;6.80;99.90;;;;;;4918904;29;20483;-69
2022/11/21 10:08:28;;;;;;;41.47;21.53;;;6.70;99.90;;;;;;4918751;29;20594;-70
2022/11/21 10:10:55;;;;;;;42.83;20.93;;;6.70;99.90;;;;;;4918582;29;20444;-70
2022/11/21 10:13:48;;;;;;;46.53;21.07;;;6.70;99.90;;;;;;4918526;29;20821;-70
2022/11/21 10:16:19;;;;;;;59.23;21.83;;;6.80;99.90;;;;;;4918887;29;20751;-70
2022/11/21 10:19:00;;;;;;;48.63;21.37;;;6.80;99.90;;;;;;4918465;29;20565;-70
2022/11/21 10:21:49;;;;;;;47.50;22.00;;;6.80;99.90;;;;;;4918487;29;20436;-71
2022/11/21 10:24:42;;;;;;;51.77;21.60;;;6.80;99.90;;;;;;4918699;29;20507;-70
2022/11/21 10:27:16;;;;;;;45.63;19.20;;;6.80;99.90;;;;;;4917337;29;20500;-72
2022/11/21 10:29:58;;;;;;;50.00;20.20;;;7.00;99.90;;;;;;4918446;29;20514;-69
2022/11/21 10:32:58;;;;;;;55.27;23.23;;;7.20;99.90;;;;;;4901484;29;20532;-72
2022/11/21 10:35:45;;;;;;;51.17;20.23;;;7.60;99.90;;;;;;4848990;29;20448;-72
2022/11/21 10:38:33;;;;;;;40.03;19.70;;;7.60;99.90;;;;;;4899266;29;20429;-72
2022/11/21 10:41:23;;;;;;;42.10;21.00;;;7.60;99.90;;;;;;4899390;29;20508;-72
2022/11/21 10:46:39;;;;;;;39.57;20.30;;;7.70;99.90;;;;;;4899192;29;20459;-69
2022/11/21 10:49:11;;;;;;;44.23;21.00;;;7.80;99.90;;;;;;4899068;29;20469;-73
2022/11/21 10:51:50;;;;;;;35.10;19.87;;;7.70;99.90;;;;;;4899197;29;20246;-68
2022/11/21 10:54:31;;;;;;;38.07;19.17;;;7.60;99.90;;;;;;4899155;29;20437;-68
2022/11/21 10:57:16;;;;;;;42.40;20.70;;;7.60;99.90;;;;;;4899149;29;20437;-69
2022/11/21 10:59:59;;;;;;;40.77;21.97;;;7.60;99.90;;;;;;4899064;29;20441;-71
2022/11/21 11:02:25;;;;;;;43.00;20.00;;;7.60;99.90;;;;;;4899059;29;20437;-68
2022/11/21 11:05:18;;;;;;;44.97;23.63;;;7.50;99.90;;;;;;4898986;29;20441;-70
2022/11/21 11:08:00;;;;;;;43.93;20.33;;;7.40;99.90;;;;;;4898948;29;20433;-70
2022/11/21 11:10:26;;;;;;;43.60;21.80;;;7.40;99.90;;;;;;4898708;29;20991;-70
2022/11/21 11:15:51;;;;;;;44.63;20.70;;;7.50;99.90;;;;;;4898994;29;20536;-71
2022/11/21 11:18:20;;;;;;;36.63;21.50;;;7.50;99.90;;;;;;4892914;29;20467;-71
2022/11/21 11:20:46;;;;;;;46.27;21.70;;;7.50;99.90;;;;;;4898705;29;20503;-72
2022/11/21 11:23:25;;;;;;;45.20;19.67;;;7.90;99.90;;;;;;4898510;29;20496;-72
2022/11/21 11:25:59;;;;;;;38.70;20.87;;;8.20;99.90;;;;;;4898529;29;20208;-72
2022/11/21 11:28:32;;;;;;;41.53;20.20;;;8.40;99.90;;;;;;4898561;29;20432;-72
2022/11/21 11:30:58;;;;;;;36.70;18.00;;;8.50;99.90;;;;;;4898339;29;20492;-72
2022/11/21 11:33:54;;;;;;;43.10;21.60;;;8.60;99.90;;;;;;4898046;29;20921;-72
2022/11/21 11:36:33;;;;;;;37.93;21.73;;;8.80;99.90;;;;;;4888181;29;20459;-73
2022/11/21 11:39:00;;;;;;;40.57;21.53;;;8.80;99.90;;;;;;4898013;29;21019;-74
2022/11/21 11:48:09;;;;;;;36.10;19.70;;;8.70;99.90;;;;;;4898100;29;20436;-73
2022/11/21 11:50:51;;;;;;;34.20;18.33;;;8.80;99.90;;;;;;4897731;29;20472;-73
2022/11/21 11:53:19;;;;;;;41.97;20.90;;;8.80;99.90;;;;;;4897740;29;20424;-73
2022/11/21 11:55:56;;;;;;;31.50;17.47;;;8.70;99.90;;;;;;4897619;29;20971;-73
2022/11/21 11:58:56;;;;;;;32.90;19.13;;;8.70;99.90;;;;;;4898136;29;20424;-73
2022/11/21 12:01:42;;;;;;;42.83;18.27;;;8.70;99.90;;;;;;4897961;29;20573;-73
2022/11/21 12:04:20;;;;;;;28.33;19.10;;;8.70;99.90;;;;;;4897912;29;20440;-73
2022/11/21 12:06:49;;;;;;;28.23;17.60;;;8.70;99.90;;;;;;4898003;29;20927;-73
2022/11/21 12:09:15;;;;;;;28.33;17.87;;;8.70;99.90;;;;;;4897906;29;20479;-72
2022/11/21 12:12:07;;;;;;;35.47;18.53;;;8.70;99.90;;;;;;4898048;29;20417;-71
2022/11/21 12:17:48;;;;;;;28.07;16.43;;;8.80;99.90;;;;;;4898280;29;20799;-74
2022/11/21 12:20:19;;;;;;;30.53;18.07;;;8.80;99.90;;;;;;4897602;29;20481;-78
2022/11/21 12:22:47;;;;;;;36.93;17.63;;;8.80;99.90;;;;;;4897659;29;20433;-74
2022/11/21 12:25:13;;;;;;;28.93;15.50;;;8.80;99.90;;;;;;4897845;29;20432;-73
2022/11/21 12:27:41;;;;;;;27.23;16.40;;;8.70;99.90;;;;;;4897906;29;20524;-73
2022/11/21 12:30:36;;;;;;;29.20;16.77;;;8.70;99.90;;;;;;4895170;29;20224;-74
2022/11/21 12:33:04;;;;;;;28.53;16.00;;;8.70;99.90;;;;;;4916607;29;20443;-73
2022/11/21 12:35:42;;;;;;;29.30;15.90;;;8.70;99.90;;;;;;4916624;29;20428;-73
2022/11/21 12:38:41;;;;;;;31.20;16.23;;;8.70;99.90;;;;;;4916584;29;20434;-73
2022/11/21 12:44:37;;;;;;;24.07;15.10;;;8.80;99.90;;;;;;4916808;29;20793;-73
2022/11/21 12:47:28;;;;;;;30.07;15.30;;;8.80;99.90;;;;;;4916577;29;20431;-73
2022/11/21 12:56:15;;;;;;;26.47;16.20;;;9.00;99.90;;;;;;4920475;29;20439;-74
2022/11/21 12:58:46;;;;;;;21.60;14.07;;;8.80;99.90;;;;;;4920204;29;20526;-74
2022/11/21 13:01:40;;;;;;;19.33;14.30;;;8.90;99.90;;;;;;4920099;29;20427;-73
2022/11/21 13:04:19;;;;;;;23.00;13.73;;;9.00;99.90;;;;;;4913128;29;20440;-74
2022/11/21 13:06:47;;;;;;;24.20;13.70;;;9.00;99.90;;;;;;4920126;29;20439;-73
2022/11/21 13:09:17;;;;;;;22.43;13.93;;;9.00;99.90;;;;;;4919794;29;20475;-74
2022/11/21 13:11:59;;;;;;;27.10;12.77;;;9.00;99.90;;;;;;4919996;29;20946;-73
2022/11/21 13:14:28;;;;;;;26.27;14.17;;;8.90;99.90;;;;;;4919921;29;20432;-74
2022/11/21 13:17:04;;;;;;;18.10;12.77;;;8.90;99.90;;;;;;4919838;29;20419;-74
2022/11/21 13:20:02;;;;;;;20.77;12.60;;;9.00;99.90;;;;;;4918732;29;20424;-73
2022/11/21 13:22:34;;;;;;;16.57;11.63;;;9.00;99.90;;;;;;4919616;29;20435;-75
2022/11/21 13:25:11;;;;;;;17.77;13.50;;;9.00;99.90;;;;;;4919690;29;20499;-77
2022/11/21 13:27:40;;;;;;;20.93;14.07;;;9.00;99.90;;;;;;4919700;29;20499;-76
2022/11/21 13:30:06;;;;;;;21.17;13.30;;;9.00;99.90;;;;;;4919441;29;20558;-73
2022/11/21 13:32:39;;;;;;;19.70;12.97;;;9.00;99.90;;;;;;4919424;29;20502;-73
2022/11/21 13:35:13;;;;;;;17.90;11.90;;;9.00;99.90;;;;;;4919461;29;20543;-74
2022/11/21 13:37:48;;;;;;;17.00;13.00;;;9.00;99.90;;;;;;4919436;29;20423;-73
2022/11/21 13:40:26;;;;;;;19.07;12.77;;;9.00;99.90;;;;;;4919381;29;20423;-73
2022/11/21 13:43:18;;;;;;;15.70;12.30;;;9.10;99.90;;;;;;4919433;29;20431;-72
2022/11/21 13:45:48;;;;;;;19.80;12.20;;;9.10;99.90;;;;;;4919247;29;20436;-72
2022/11/21 13:48:27;;;;;;;13.37;10.13;;;9.00;99.90;;;;;;4919289;29;20427;-74
2022/11/21 13:51:10;;;;;;;16.57;11.60;;;9.10;99.90;;;;;;4919291;29;20861;-74
2022/11/21 13:54:02;;;;;;;23.17;10.33;;;9.10;99.90;;;;;;4919159;29;20479;-73
2022/11/21 13:57:05;;;;;;;14.40;9.10;;;9.10;99.90;;;;;;4919199;29;20473;-73
2022/11/21 13:59:39;;;;;;;14.57;10.10;;;9.10;99.90;;;;;;4918937;29;20483;-74
2022/11/21 14:02:23;;;;;;;14.67;10.60;;;9.00;99.90;;;;;;4918689;29;20435;-73
2022/11/21 14:05:17;;;;;;;13.27;10.47;;;9.00;99.90;;;;;;4918898;29;20438;-74
2022/11/21 14:07:43;;;;;;;14.80;9.57;;;9.00;99.90;;;;;;4919025;29;20447;-73
2022/11/21 14:10:24;;;;;;;15.97;9.80;;;8.90;99.90;;;;;;4918762;29;20566;-74
2022/11/21 14:12:51;;;;;;;14.37;10.10;;;8.90;99.90;;;;;;4918755;29;20510;-73
2022/11/21 14:15:38;;;;;;;15.80;9.73;;;8.90;99.90;;;;;;4918831;29;20435;-73
2022/11/21 14:18:03;;;;;;;11.97;10.40;;;8.90;99.90;;;;;;4918725;29;20432;-73
2022/11/21 14:20:52;;;;;;;15.93;10.27;;;8.90;99.90;;;;;;4901848;29;20428;-73
2022/11/21 14:23:23;;;;;;;16.23;11.13;;;8.90;99.90;;;;;;4904552;29;20711;-77
2022/11/21 14:25:53;;;;;;;12.93;10.23;;;9.00;99.90;;;;;;4918716;29;20772;-74
2022/11/21 14:28:28;;;;;;;14.87;9.37;;;9.00;99.90;;;;;;4918523;29;20423;-74
2022/11/21 14:31:08;;;;;;;18.63;11.13;;;9.00;99.90;;;;;;4918367;29;20482;-74
2022/11/21 14:33:36;;;;;;;13.77;10.37;;;8.90;99.90;;;;;;4918441;29;20478;-74
2022/11/21 14:36:02;;;;;;;15.80;9.97;;;8.90;99.90;;;;;;4918503;29;20420;-73
2022/11/21 14:38:30;;;;;;;11.77;10.27;;;8.90;99.90;;;;;;4918202;29;20798;-73
2022/11/21 14:41:31;;;;;;;14.20;10.10;;;8.90;99.90;;;;;;4918228;29;20573;-73
2022/11/21 14:43:57;;;;;;;15.90;11.90;;;8.90;99.90;;;;;;4841265;29;20442;-73
2022/11/21 14:46:26;;;;;;;16.60;10.63;;;8.90;99.90;;;;;;4902450;29;20443;-73
2022/11/21 14:48:52;;;;;;;16.70;11.03;;;8.80;99.90;;;;;;4918201;29;20633;-73
2022/11/21 14:51:23;;;;;;;14.30;9.53;;;8.80;99.90;;;;;;4918035;29;20448;-73
2022/11/21 14:53:51;;;;;;;16.53;10.43;;;8.70;99.90;;;;;;4918053;29;20423;-73
2022/11/21 14:56:29;;;;;;;15.90;9.60;;;8.80;99.90;;;;;;4917988;29;20435;-74
2022/11/21 14:58:57;;;;;;;9.50;8.00;;;8.80;99.90;;;;;;4917939;29;20518;-73
2022/11/21 15:01:33;;;;;;;9.80;7.47;;;8.80;99.90;;;;;;4916958;29;20469;-75
2022/11/21 15:04:07;;;;;;;10.97;8.03;;;8.80;99.90;;;;;;4917541;29;21013;-73
2022/11/21 15:06:43;;;;;;;7.90;5.93;;;8.80;99.90;;;;;;4917962;29;20423;-73
2022/11/21 15:09:13;;;;;;;9.53;7.63;;;8.80;99.90;;;;;;4917644;29;20560;-74
2022/11/21 15:11:47;;;;;;;9.63;7.10;;;8.80;99.90;;;;;;4917801;29;20443;-73
2022/11/21 15:14:41;;;;;;;11.37;7.60;;;8.80;99.90;;;;;;4917061;29;20429;-73
2022/11/21 15:17:12;;;;;;;9.13;6.80;;;8.70;99.90;;;;;;4917645;29;20785;-73
2022/11/21 15:19:40;;;;;;;15.13;6.90;;;8.60;99.90;;;;;;4917750;29;20428;-73
2022/11/21 15:22:05;;;;;;;9.37;6.33;;;8.60;99.90;;;;;;4917312;29;20510;-73
2022/11/21 15:24:38;;;;;;;7.53;6.77;;;8.60;99.90;;;;;;4917416;29;20510;-73
2022/11/21 15:27:23;;;;;;;10.47;6.53;;;8.50;99.90;;;;;;4917372;29;20404;-73
2022/11/21 15:30:00;;;;;;;8.50;7.23;;;8.50;99.90;;;;;;4917353;29;20479;-74
2022/11/21 15:32:25;;;;;;;5.70;4.73;;;8.50;99.90;;;;;;4917227;29;20864;-76
2022/11/21 15:34:51;;;;;;;6.90;5.03;;;8.50;99.90;;;;;;4916641;29;20576;-73
2022/11/21 15:37:17;;;;;;;6.10;5.50;;;8.30;99.90;;;;;;4916137;29;20267;-75
2022/11/21 15:39:45;;;;;;;7.47;5.10;;;8.20;99.90;;;;;;4917174;29;20180;-75
2022/11/21 15:42:32;;;;;;;6.80;5.40;;;8.20;99.90;;;;;;4917031;29;20428;-75
2022/11/21 15:45:00;;;;;;;7.63;4.87;;;8.20;99.90;;;;;;4917029;29;20780;-75
2022/11/21 15:47:26;;;;;;;14.67;6.90;;;8.30;99.90;;;;;;4916997;29;20802;-75
2022/11/21 15:49:51;;;;;;;13.50;6.50;;;8.30;99.90;;;;;;4917120;29;20483;-75
2022/11/21 15:52:17;;;;;;;11.50;6.90;;;8.30;99.90;;;;;;4916544;29;20172;-75
2022/11/21 15:54:42;;;;;;;11.93;6.70;;;8.30;99.90;;;;;;4917125;29;20212;-74
2022/11/21 15:57:08;;;;;;;9.15;5.90;;;8.30;99.90;;;;;;4916303;29;20453;-73
2022/11/21 15:59:34;;;;;;;10.77;6.07;;;8.30;99.90;;;;;;4915125;29;20209;-72
2022/11/21 16:02:00;;;;;;;6.00;5.20;;;8.30;99.90;;;;;;4914019;29;20518;-72
2022/11/21 16:04:26;;;;;;;5.87;5.17;;;8.30;99.90;;;;;;4916612;29;20196;-79
2022/11/21 16:06:54;;;;;;;10.40;5.10;;;8.30;99.90;;;;;;4916749;29;20202;-74
2022/11/21 16:09:20;;;;;;;8.60;5.90;;;8.20;99.90;;;;;;4916083;29;20836;-72
2022/11/21 16:11:45;;;;;;;10.63;6.83;;;8.20;99.90;;;;;;4916278;29;20424;-72
2022/11/21 16:14:13;;;;;;;9.93;6.80;;;8.10;99.90;;;;;;4916277;29;20533;-72
2022/11/21 16:16:41;;;;;;;7.60;6.03;;;8.10;99.90;;;;;;4916623;29;20184;-73
2022/11/21 16:19:06;;;;;;;10.27;6.87;;;8.10;99.90;;;;;;4916014;29;20432;-72
2022/11/21 16:21:32;;;;;;;10.57;6.60;;;8.00;99.90;;;;;;4916656;29;20471;-77
2022/11/21 16:23:58;;;;;;;14.33;6.70;;;7.90;99.90;;;;;;4917180;29;20179;-76
2022/11/21 16:26:27;;;;;;;9.20;6.37;;;7.90;99.90;;;;;;4920447;29;20227;-74
2022/11/21 16:28:57;;;;;;;7.17;5.90;;;7.90;99.90;;;;;;4920166;29;20252;-72
2022/11/21 16:31:25;;;;;;;11.90;5.60;;;7.80;99.90;;;;;;4920194;29;20478;-73
2022/11/21 16:33:50;;;;;;;7.60;5.80;;;7.80;99.90;;;;;;4920555;29;20436;-72
2022/11/21 16:36:24;;;;;;;10.00;6.23;;;7.80;99.90;;;;;;4919949;29;20428;-73
2022/11/21 16:38:50;;;;;;;9.53;6.63;;;7.90;99.90;;;;;;4920197;29;20179;-74
2022/11/21 16:41:18;;;;;;;9.83;5.77;;;7.90;99.90;;;;;;4919707;29;20789;-83
2022/11/21 16:43:52;;;;;;;8.70;5.47;;;7.90;99.90;;;;;;4919924;29;20439;-76
2022/11/21 16:46:20;;;;;;;7.03;5.73;;;7.80;99.90;;;;;;4916847;29;20782;-74
2022/11/21 16:48:47;;;;;;;7.37;5.87;;;7.70;99.90;;;;;;4919259;29;20576;-71
2022/11/21 16:51:18;;;;;;;7.70;5.23;;;7.70;99.90;;;;;;4917514;29;20440;-70
2022/11/21 16:53:45;;;;;;;7.43;5.43;;;7.70;99.90;;;;;;4920156;29;20423;-72
2022/11/21 16:56:11;;;;;;;7.23;5.53;;;7.70;99.90;;;;;;4920006;29;20502;-76
2022/11/21 16:58:38;;;;;;;8.00;5.57;;;7.70;99.90;;;;;;4920229;29;20431;-76
2022/11/21 17:01:11;;;;;;;5.30;4.80;;;7.60;99.90;;;;;;4919972;29;20190;-76
2022/11/21 17:03:42;;;;;;;5.60;4.43;;;7.60;99.90;;;;;;4919753;29;20515;-74
2022/11/21 17:06:09;;;;;;;7.37;5.23;;;7.60;99.90;;;;;;4920005;29;20450;-73
2022/11/21 17:08:35;;;;;;;7.87;5.30;;;7.60;99.90;;;;;;4919791;29;20436;-73
2022/11/21 17:11:21;;;;;;;6.87;4.00;;;7.50;99.90;;;;;;4919800;29;20419;-73
2022/11/21 17:13:49;;;;;;;6.20;4.93;;;7.50;99.90;;;;;;4919934;29;20419;-78
2022/11/21 17:16:16;;;;;;;12.43;4.70;;;7.50;99.90;;;;;;4918871;29;20484;-75
2022/11/21 17:18:43;;;;;;;8.23;4.60;;;7.50;99.90;;;;;;4919121;29;20846;-74
2022/11/21 17:21:11;;;;;;;5.07;4.50;;;7.60;99.90;;;;;;4918556;29;20448;-74
2022/11/21 17:23:38;;;;;;;5.57;4.00;;;7.60;99.90;;;;;;4918765;29;20522;-73
2022/11/21 17:26:10;;;;;;;6.50;3.90;;;7.60;99.90;;;;;;4918697;29;20434;-74
2022/11/21 17:28:36;;;;;;;9.67;4.07;;;7.60;99.90;;;;;;4918612;29;20942;-73
2022/11/21 17:31:13;;;;;;;9.87;3.40;;;7.60;99.90;;;;;;4918480;29;20570;-74